Time;durP1;ratioP1;P1;durP2;ratioP2;P2;SDS_P1;SDS_P2;PMS_P1;PMS_P2;Temp;Humidity;BMP_temperature;BMP_pressure;BME280_temperature;BME280_humidity;BME280_pressure;Samples;Min_cycle;Max_cycle;Signal;HPM_P1;HPM_P2
2021/09/26 00:01:30;;;;;;;5.25;4.75;;;;;;;19.36;56.67;99604.66;1812608;77;21099;-57
2021/09/26 00:03:56;;;;;;;4.20;3.80;;;;;;;19.35;56.67;99607.03;1809692;78;21082;-58
2021/09/26 00:06:23;;;;;;;5.45;4.58;;;;;;;19.35;56.70;99611.08;1801379;78;21096;-57
2021/09/26 00:08:49;;;;;;;5.12;4.47;;;;;;;19.34;56.66;99608.92;1823996;78;21065;-59
2021/09/26 00:11:15;;;;;;;4.65;3.75;;;;;;;19.34;56.67;99610.27;1809584;77;21055;-59
2021/09/26 00:13:42;;;;;;;4.40;3.95;;;;;;;19.34;56.66;99613.48;1808434;77;21130;-59
2021/09/26 00:16:09;;;;;;;4.40;4.03;;;;;;;19.33;56.66;99612.65;1822384;77;21113;-59
2021/09/26 00:18:35;;;;;;;4.33;3.92;;;;;;;19.34;56.64;99616.19;1810539;77;21114;-61
2021/09/26 00:21:02;;;;;;;4.20;3.80;;;;;;;19.31;56.66;99619.32;1805498;78;21510;-59
2021/09/26 00:23:32;;;;;;;3.98;3.67;;;;;;;19.33;56.62;99619.91;1819256;77;20978;-59
2021/09/26 00:25:57;;;;;;;5.00;4.12;;;;;;;19.32;56.63;99628.53;1804694;78;20977;-59
2021/09/26 00:28:23;;;;;;;5.55;3.75;;;;;;;19.31;56.66;99622.83;1814448;77;21020;-57
2021/09/26 00:30:49;;;;;;;4.53;3.83;;;;;;;19.30;56.63;99617.16;1815896;77;21126;-59
2021/09/26 00:33:16;;;;;;;4.55;3.77;;;;;;;19.30;56.63;99617.16;1803752;78;21529;-58
2021/09/26 00:35:42;;;;;;;4.72;3.92;;;;;;;19.30;56.66;99623.08;1808234;78;21087;-59
2021/09/26 00:38:09;;;;;;;4.62;4.20;;;;;;;19.28;56.65;99627.34;1827807;77;21029;-58
2021/09/26 00:40:37;;;;;;;3.98;3.50;;;;;;;19.27;56.65;99628.37;1813898;77;23336;-59
2021/09/26 00:43:04;;;;;;;4.47;3.65;;;;;;;19.27;56.66;99634.30;1809907;78;21065;-58
2021/09/26 00:45:30;;;;;;;4.20;3.80;;;;;;;19.27;56.67;99627.56;1804345;77;21072;-58
2021/09/26 00:47:56;;;;;;;4.20;3.80;;;;;;;19.25;56.70;99625.91;1819989;77;21486;-58
2021/09/26 00:50:24;;;;;;;4.10;3.75;;;;;;;19.19;56.68;99625.48;1806431;78;21106;-58
2021/09/26 00:52:52;;;;;;;4.28;3.95;;;;;;;19.25;56.67;99637.21;1816375;77;21177;-57
2021/09/26 00:55:18;;;;;;;4.53;4.10;;;;;;;19.24;56.67;99634.23;1811606;77;21048;-58
2021/09/26 00:57:45;;;;;;;5.03;3.83;;;;;;;19.23;56.69;99638.78;1803580;78;20995;-57
2021/09/26 01:00:14;;;;;;;4.20;3.70;;;;;;;19.22;56.72;99641.19;1801031;77;21034;-58
2021/09/26 01:02:41;;;;;;;3.95;3.55;;;;;;;19.22;56.68;99640.38;1809165;77;21041;-59
2021/09/26 01:05:09;;;;;;;4.08;3.65;;;;;;;19.22;56.73;99634.98;1806128;78;21088;-58
2021/09/26 01:08:00;;;;;;;4.17;3.52;;;;;;;19.21;56.70;99638.72;1805361;77;21013;-58
2021/09/26 01:11:03;;;;;;;4.50;3.60;;;;;;;19.21;56.71;99644.11;1803960;77;21525;-60
2021/09/26 01:13:38;;;;;;;4.00;3.60;;;;;;;19.20;56.73;99647.83;1806765;77;21464;-59
2021/09/26 01:16:25;;;;;;;3.98;3.62;;;;;;;19.18;56.75;99649.93;1805042;78;21004;-59
2021/09/26 01:19:02;;;;;;;4.25;3.65;;;;;;;19.17;56.77;99657.73;1813841;77;23304;-58
2021/09/26 01:21:43;;;;;;;4.15;3.30;;;;;;;19.16;56.79;99657.41;1804082;77;20993;-59
2021/09/26 01:24:50;;;;;;;3.90;3.50;;;;;;;19.15;56.81;99662.52;1785629;78;21580;-59
2021/09/26 01:27:36;;;;;;;4.10;3.70;;;;;;;19.13;56.83;99657.35;1805655;77;21501;-58
2021/09/26 01:30:17;;;;;;;3.72;3.42;;;;;;;19.12;56.84;99658.92;1808235;78;20966;-59
2021/09/26 01:33:06;;;;;;;3.87;3.47;;;;;;;19.10;56.90;99654.28;1814947;77;21202;-58
2021/09/26 01:35:33;;;;;;;3.65;3.35;;;;;;;19.09;56.92;99655.34;1828980;77;21433;-58
2021/09/26 01:38:10;;;;;;;3.50;3.20;;;;;;;19.07;56.96;99664.99;1813426;77;21049;-58
2021/09/26 01:40:44;;;;;;;4.05;3.65;;;;;;;19.07;56.98;99666.88;1800933;78;20999;-59
2021/09/26 01:43:14;;;;;;;3.50;3.17;;;;;;;19.06;57.00;99676.80;1774506;79;21012;-57
2021/09/26 01:45:56;;;;;;;4.00;3.60;;;;;;;19.05;57.00;99678.67;1814475;78;21101;-58
2021/09/26 01:48:28;;;;;;;4.00;3.33;;;;;;;19.05;57.00;99678.67;1818894;77;20993;-58
2021/09/26 01:50:57;;;;;;;3.22;2.92;;;;;;;19.04;57.01;99674.86;1830478;77;21478;-58
2021/09/26 01:53:25;;;;;;;3.72;3.30;;;;;;;19.04;57.02;99684.28;1806177;77;20970;-58
2021/09/26 01:55:51;;;;;;;3.83;3.35;;;;;;;19.03;57.02;99690.20;1804616;77;21013;-58
2021/09/26 01:58:18;;;;;;;3.87;3.50;;;;;;;19.02;57.02;99688.53;1805589;78;22791;-58
2021/09/26 02:00:44;;;;;;;3.83;3.40;;;;;;;19.03;57.03;99697.45;1815558;77;21134;-58
2021/09/26 02:03:11;;;;;;;3.67;3.30;;;;;;;19.02;57.04;99702.00;1814117;78;21065;-59
2021/09/26 02:05:40;;;;;;;3.87;3.47;;;;;;;19.01;57.04;99707.09;1823180;77;21677;-58
2021/09/26 02:08:07;;;;;;;3.47;3.10;;;;;;;19.01;57.04;99704.41;1818522;77;21470;-59
2021/09/26 02:10:34;;;;;;;3.72;3.42;;;;;;;19.01;57.03;99704.41;1820390;77;21525;-58
2021/09/26 02:13:00;;;;;;;3.45;3.08;;;;;;;19.00;57.03;99700.05;1820205;78;21005;-58
2021/09/26 02:15:27;;;;;;;3.55;3.25;;;;;;;19.00;57.03;99692.51;1820313;78;21001;-58
2021/09/26 02:17:54;;;;;;;3.45;3.15;;;;;;;19.00;57.04;99699.23;1835167;77;21075;-58
2021/09/26 02:20:20;;;;;;;3.37;3.08;;;;;;;18.97;57.04;99692.98;1815936;78;21057;-58
2021/09/26 02:22:48;;;;;;;3.50;3.20;;;;;;;18.99;57.03;99702.99;1802636;77;23162;-58
2021/09/26 02:25:15;;;;;;;4.05;3.75;;;;;;;18.99;57.02;99705.69;1818328;78;21060;-58
2021/09/26 02:27:41;;;;;;;3.58;3.27;;;;;;;18.99;57.00;99709.72;1823181;77;21509;-58
2021/09/26 02:30:09;;;;;;;3.20;2.90;;;;;;;18.98;57.03;99708.88;1823323;77;21508;-58
2021/09/26 02:32:36;;;;;;;3.72;2.98;;;;;;;18.98;57.00;99722.87;1816781;78;21018;-58
2021/09/26 02:35:04;;;;;;;3.45;3.15;;;;;;;18.98;56.99;99722.34;1803094;78;21129;-59
2021/09/26 02:37:31;;;;;;;3.25;2.95;;;;;;;18.98;57.02;99723.69;1818490;78;21010;-58
2021/09/26 02:39:57;;;;;;;3.62;3.33;;;;;;;18.97;57.01;99728.78;1820875;77;21502;-59
2021/09/26 02:42:47;;;;;;;3.62;3.33;;;;;;;18.97;56.99;99730.12;1793300;78;21046;-58
2021/09/26 02:45:22;;;;;;;3.15;2.83;;;;;;;18.96;56.99;99729.81;1796075;77;21092;-59
2021/09/26 02:47:59;;;;;;;3.15;2.85;;;;;;;18.95;56.99;99733.57;1776908;78;23291;-58
2021/09/26 02:50:26;;;;;;;3.10;2.80;;;;;;;18.95;57.00;99734.92;1812658;78;21065;-58
2021/09/26 02:52:53;;;;;;;4.10;3.58;;;;;;;18.94;56.99;99731.91;1836123;77;20994;-59
2021/09/26 02:55:19;;;;;;;3.25;2.95;;;;;;;18.94;56.99;99733.79;1822726;77;21010;-58
2021/09/26 02:57:45;;;;;;;2.92;2.70;;;;;;;18.93;56.97;99734.31;1794837;78;21510;-59
2021/09/26 03:00:13;;;;;;;3.22;2.92;;;;;;;18.93;56.96;99742.39;1816302;78;21198;-57
2021/09/26 03:02:40;;;;;;;3.25;2.95;;;;;;;18.93;56.96;99742.39;1820989;77;21029;-59
2021/09/26 03:05:08;;;;;;;3.42;3.12;;;;;;;18.93;56.94;99755.85;1821801;77;20963;-57
2021/09/26 03:07:34;;;;;;;3.40;3.02;;;;;;;18.93;56.92;99758.55;1820296;78;21001;-59
2021/09/26 03:10:01;;;;;;;3.25;2.95;;;;;;;18.92;56.93;99757.41;1819099;77;21028;-58
2021/09/26 03:12:28;;;;;;;3.35;3.05;;;;;;;18.91;56.91;99751.22;1810776;78;21061;-59
2021/09/26 03:14:54;;;;;;;2.98;2.72;;;;;;;18.91;56.91;99760.64;1805504;78;21053;-58
2021/09/26 03:17:20;;;;;;;2.87;2.67;;;;;;;18.91;56.91;99757.09;1821217;77;21014;-58
2021/09/26 03:19:46;;;;;;;3.22;3.02;;;;;;;18.90;56.90;99761.66;1811895;77;21748;-58
2021/09/26 03:22:13;;;;;;;2.80;2.50;;;;;;;18.89;56.90;99758.69;1811468;78;21042;-58
2021/09/26 03:24:40;;;;;;;3.30;2.87;;;;;;;18.91;56.88;99766.02;1820389;77;21057;-58
2021/09/26 03:27:11;;;;;;;2.90;2.55;;;;;;;18.89;56.86;99766.77;1799318;78;21285;-57
2021/09/26 03:29:42;;;;;;;3.17;2.90;;;;;;;18.89;56.85;99761.38;1821403;77;21506;-59
2021/09/26 03:32:10;;;;;;;3.30;3.00;;;;;;;18.89;56.84;99764.08;1824498;77;21065;-58
2021/09/26 03:34:36;;;;;;;3.10;2.80;;;;;;;18.89;56.84;99768.61;1820810;77;20986;-59
2021/09/26 03:37:03;;;;;;;4.20;2.90;;;;;;;18.88;56.83;99767.80;1820267;78;21747;-58
2021/09/26 03:39:30;;;;;;;3.08;2.70;;;;;;;18.87;56.84;99767.48;1820256;77;21024;-59
2021/09/26 03:41:56;;;;;;;3.85;3.17;;;;;;;18.86;56.84;99769.36;1825206;77;21117;-59
2021/09/26 03:44:22;;;;;;;3.00;2.77;;;;;;;18.87;56.83;99771.52;1823899;78;21045;-59
2021/09/26 03:46:49;;;;;;;4.42;2.83;;;;;;;18.84;56.81;99775.48;1813331;77;20989;-58
2021/09/26 03:49:15;;;;;;;3.27;2.98;;;;;;;18.84;56.80;99779.52;1836857;77;21060;-57
2021/09/26 03:51:42;;;;;;;3.00;2.70;;;;;;;18.84;56.80;99780.05;1844588;76;21009;-58
2021/09/26 03:54:08;;;;;;;3.08;2.80;;;;;;;18.84;56.80;99774.14;1827750;77;21025;-59
2021/09/26 03:56:35;;;;;;;3.15;2.85;;;;;;;18.84;56.79;99780.87;1822322;77;21076;-58
2021/09/26 03:59:01;;;;;;;3.47;3.17;;;;;;;18.83;56.81;99783.27;1815981;78;21009;-58
2021/09/26 04:01:27;;;;;;;2.65;2.45;;;;;;;18.83;56.78;99783.77;1825044;77;21088;-58
2021/09/26 04:03:53;;;;;;;2.85;2.65;;;;;;;18.83;56.78;99790.50;1826370;77;21521;-58
2021/09/26 04:06:20;;;;;;;2.77;2.58;;;;;;;18.83;56.77;99790.50;1808103;77;21021;-59
2021/09/26 04:08:46;;;;;;;3.08;2.77;;;;;;;18.82;56.77;99796.42;1817776;78;21802;-58
2021/09/26 04:11:13;;;;;;;2.47;2.27;;;;;;;18.82;56.77;99793.72;1828249;77;21455;-59
2021/09/26 04:13:39;;;;;;;2.80;2.60;;;;;;;18.82;56.77;99794.26;1821052;78;21054;-58
2021/09/26 04:16:05;;;;;;;2.67;2.47;;;;;;;18.81;56.76;99792.09;1828748;77;21013;-59
2021/09/26 04:18:32;;;;;;;3.20;2.90;;;;;;;18.81;56.77;99793.44;1818920;77;21071;-57
2021/09/26 04:20:58;;;;;;;2.67;2.40;;;;;;;18.81;56.88;99785.87;1831996;77;21021;-59
2021/09/26 04:23:24;;;;;;;3.75;2.92;;;;;;;18.81;56.91;99786.72;1808693;78;21559;-58
2021/09/26 04:25:51;;;;;;;2.92;2.62;;;;;;;18.80;56.91;99788.27;1818380;78;21189;-58
2021/09/26 04:28:17;;;;;;;3.10;2.60;;;;;;;18.80;56.91;99790.44;1829498;77;21041;-58
2021/09/26 04:30:43;;;;;;;3.20;2.90;;;;;;;18.81;56.92;99800.67;1840006;77;21002;-58
2021/09/26 04:33:10;;;;;;;3.75;2.77;;;;;;;18.80;56.91;99803.89;1827698;77;21007;-58
2021/09/26 04:35:36;;;;;;;2.87;2.62;;;;;;;18.71;56.91;99795.75;1823890;78;21072;-58
2021/09/26 04:38:02;;;;;;;2.42;2.22;;;;;;;18.81;56.90;99816.81;1824396;78;21076;-59
2021/09/26 04:40:28;;;;;;;3.33;2.42;;;;;;;18.81;56.91;99811.44;1825392;78;21056;-59
2021/09/26 04:42:55;;;;;;;2.40;2.20;;;;;;;18.81;56.88;99816.31;1814806;77;20986;-57
2021/09/26 04:45:21;;;;;;;2.67;2.47;;;;;;;18.82;56.88;99815.78;1825624;77;21001;-59
2021/09/26 04:47:47;;;;;;;3.10;2.75;;;;;;;18.83;56.88;99817.42;1833613;77;21006;-59
2021/09/26 04:50:14;;;;;;;2.40;2.20;;;;;;;18.83;56.83;99823.65;1832626;77;21057;-58
2021/09/26 04:52:40;;;;;;;2.80;2.60;;;;;;;18.85;56.81;99828.78;1822989;77;21001;-59
2021/09/26 04:55:07;;;;;;;2.92;2.62;;;;;;;18.86;56.81;99824.53;1819656;78;21481;-58
2021/09/26 04:57:34;;;;;;;4.33;2.72;;;;;;;18.86;56.78;99828.57;1818239;78;21505;-59
2021/09/26 05:00:00;;;;;;;3.15;2.60;;;;;;;18.86;56.75;99829.91;1816503;77;20978;-57
2021/09/26 05:02:26;;;;;;;2.35;2.15;;;;;;;18.89;56.74;99827.83;1827213;76;21072;-58
2021/09/26 05:04:53;;;;;;;3.10;2.80;;;;;;;18.90;56.71;99834.88;1825841;78;21722;-58
2021/09/26 05:07:20;;;;;;;3.37;2.77;;;;;;;18.91;56.69;99836.00;1832302;77;21494;-59
2021/09/26 05:09:46;;;;;;;3.02;2.72;;;;;;;18.93;56.66;99835.26;1822780;78;21564;-58
2021/09/26 05:12:13;;;;;;;2.70;2.50;;;;;;;18.95;56.62;99843.09;1822618;77;20983;-58
2021/09/26 05:14:39;;;;;;;2.50;2.30;;;;;;;18.96;56.60;99838.02;1834703;77;21057;-59
2021/09/26 05:17:08;;;;;;;2.87;2.67;;;;;;;18.98;56.58;99847.52;1827348;77;21287;-58
2021/09/26 05:19:34;;;;;;;3.30;2.95;;;;;;;18.98;56.56;99843.48;1822100;77;21025;-58
2021/09/26 05:22:01;;;;;;;3.35;2.67;;;;;;;19.00;56.54;99844.61;1818433;78;21060;-59
2021/09/26 05:24:28;;;;;;;3.00;2.80;;;;;;;19.00;56.50;99849.46;1821251;77;21041;-58
2021/09/26 05:26:55;;;;;;;2.77;2.45;;;;;;;19.02;56.49;99858.67;1819471;78;21212;-58
2021/09/26 05:29:21;;;;;;;2.58;2.05;;;;;;;19.02;56.45;99858.67;1821817;77;21052;-58
2021/09/26 05:31:47;;;;;;;2.50;2.30;;;;;;;19.04;56.43;99861.96;1822211;77;21028;-57
2021/09/26 05:34:14;;;;;;;2.55;2.35;;;;;;;19.04;56.41;99866.84;1823316;77;21085;-59
2021/09/26 05:36:40;;;;;;;2.83;2.47;;;;;;;19.05;56.41;99867.14;1798844;78;21021;-58
2021/09/26 05:39:07;;;;;;;3.05;2.45;;;;;;;19.06;56.35;99869.30;1811733;77;23354;-59
2021/09/26 05:41:33;;;;;;;2.58;2.37;;;;;;;19.07;56.36;99871.48;1845264;77;21435;-58
2021/09/26 05:43:59;;;;;;;3.12;2.30;;;;;;;19.08;56.36;99873.94;1830529;77;21052;-59
2021/09/26 05:46:26;;;;;;;2.60;2.40;;;;;;;19.09;56.35;99878.29;1808552;78;21041;-59
2021/09/26 05:48:52;;;;;;;3.50;2.70;;;;;;;19.10;56.33;99877.77;1819282;77;21494;-58
2021/09/26 05:51:18;;;;;;;3.02;2.80;;;;;;;19.13;56.30;99882.19;1811865;77;21107;-60
2021/09/26 05:53:45;;;;;;;3.20;2.90;;;;;;;19.15;56.30;99876.06;1822167;78;20954;-61
2021/09/26 05:56:11;;;;;;;3.08;2.67;;;;;;;19.17;56.27;99869.92;1837864;77;20990;-59
2021/09/26 05:58:37;;;;;;;3.30;2.50;;;;;;;19.20;56.25;99871.34;1807291;76;21585;-58
2021/09/26 06:01:03;;;;;;;2.80;2.50;;;;;;;19.23;56.21;99879.80;1832368;77;21037;-58
2021/09/26 06:03:30;;;;;;;2.40;2.20;;;;;;;19.25;56.18;99870.16;1835773;77;21181;-59
2021/09/26 06:05:56;;;;;;;2.80;2.50;;;;;;;19.27;56.17;99877.50;1822778;78;20974;-58
2021/09/26 06:08:26;;;;;;;2.12;2.00;;;;;;;19.29;56.12;99877.28;1809411;78;21519;-58
2021/09/26 06:10:51;;;;;;;2.60;2.40;;;;;;;19.31;56.08;99878.70;1820688;77;20990;-58
2021/09/26 06:13:17;;;;;;;2.90;2.27;;;;;;;19.34;56.05;99874.76;1821652;77;21196;-58
2021/09/26 06:15:43;;;;;;;2.60;2.40;;;;;;;19.35;56.01;99878.55;1829735;77;21065;-59
2021/09/26 06:18:10;;;;;;;3.10;2.72;;;;;;;19.37;55.98;99872.45;1834886;77;21005;-60
2021/09/26 06:20:36;;;;;;;2.30;2.10;;;;;;;19.40;55.90;99880.06;1842086;77;21030;-59
2021/09/26 06:23:02;;;;;;;2.92;2.67;;;;;;;19.43;55.85;99883.67;1816402;77;21033;-59
2021/09/26 06:25:29;;;;;;;2.40;2.20;;;;;;;19.46;55.83;99887.78;1821850;77;20982;-59
2021/09/26 06:27:56;;;;;;;2.42;2.22;;;;;;;19.48;55.74;99892.42;1825785;77;21050;-58
2021/09/26 06:30:22;;;;;;;2.70;2.50;;;;;;;19.52;55.70;99891.45;1826906;77;21100;-67
2021/09/26 06:32:49;;;;;;;7.47;3.72;;;;;;;19.53;55.64;99868.34;1828085;77;21033;-63
2021/09/26 06:35:15;;;;;;;6.95;3.52;;;;;;;19.60;62.58;99879.03;1832526;77;21022;-65
2021/09/26 06:37:41;;;;;;;5.15;3.37;;;;;;;19.80;67.23;99876.16;1822204;77;21529;-66
2021/09/26 06:40:09;;;;;;;5.33;3.62;;;;;;;20.03;69.11;99873.59;1822677;77;21926;-60
2021/09/26 06:42:35;;;;;;;3.77;2.92;;;;;;;20.22;69.49;99891.91;1823351;77;21076;-59
2021/09/26 06:45:03;;;;;;;5.12;3.37;;;;;;;20.36;68.56;99893.91;1820664;78;21045;-61
2021/09/26 06:47:29;;;;;;;4.30;2.98;;;;;;;20.45;67.27;99905.72;1832132;77;21010;-59
2021/09/26 06:49:55;;;;;;;4.17;2.83;;;;;;;20.50;65.94;99903.16;1828544;77;21544;-59
2021/09/26 06:52:22;;;;;;;4.55;3.15;;;;;;;20.53;64.64;99906.23;1815282;77;21479;-59
2021/09/26 06:54:48;;;;;;;5.35;3.10;;;;;;;20.53;63.57;99902.18;1812681;77;20989;-59
2021/09/26 06:57:14;;;;;;;3.83;2.98;;;;;;;20.54;62.85;99906.52;1832520;77;21006;-58
2021/09/26 06:59:41;;;;;;;4.12;2.83;;;;;;;20.55;62.26;99907.33;1812018;78;21558;-60
2021/09/26 07:02:07;;;;;;;4.58;3.30;;;;;;;20.55;61.81;99905.98;1807707;78;21489;-59
2021/09/26 07:04:34;;;;;;;4.17;3.00;;;;;;;20.54;61.46;99905.16;1819439;77;21108;-58
2021/09/26 07:07:01;;;;;;;3.47;3.17;;;;;;;20.54;61.13;99910.56;1818444;77;20991;-58
2021/09/26 07:09:27;;;;;;;4.25;3.42;;;;;;;20.53;60.81;99907.58;1824537;77;21069;-59
2021/09/26 07:11:53;;;;;;;4.40;3.33;;;;;;;20.54;60.52;99908.39;1848176;77;21007;-58
2021/09/26 07:14:20;;;;;;;4.50;3.08;;;;;;;20.52;60.25;99905.92;1819494;77;21054;-58
2021/09/26 07:16:46;;;;;;;4.37;3.25;;;;;;;20.54;59.98;99911.91;1808857;77;21132;-59
2021/09/26 07:19:12;;;;;;;3.62;2.80;;;;;;;20.53;59.78;99910.28;1799153;78;21029;-60
2021/09/26 07:21:39;;;;;;;3.20;2.80;;;;;;;20.54;59.57;99919.19;1821052;77;20987;-59
2021/09/26 07:24:05;;;;;;;4.47;2.85;;;;;;;20.54;59.38;99916.48;1812010;77;21053;-59
2021/09/26 07:26:31;;;;;;;2.98;2.62;;;;;;;20.54;59.20;99915.14;1812153;78;21564;-58
2021/09/26 07:28:58;;;;;;;3.17;2.65;;;;;;;20.53;59.02;99918.88;1813842;78;21188;-59
2021/09/26 07:31:24;;;;;;;3.60;3.20;;;;;;;20.54;58.82;99913.80;1832023;77;20946;-59
2021/09/26 07:33:51;;;;;;;3.65;2.75;;;;;;;20.55;58.65;99926.22;1822554;77;21026;-60
2021/09/26 07:36:18;;;;;;;3.25;2.87;;;;;;;20.55;58.48;99918.97;1823979;77;21036;-58
2021/09/26 07:38:44;;;;;;;4.50;2.65;;;;;;;20.55;58.33;99920.31;1821619;78;20996;-60
2021/09/26 07:41:11;;;;;;;3.75;2.60;;;;;;;20.56;58.20;99923.83;1816941;77;21974;-59
2021/09/26 07:43:37;;;;;;;4.35;2.83;;;;;;;20.57;58.04;99928.16;1814291;77;21001;-63
2021/09/26 07:46:04;;;;;;;3.22;2.87;;;;;;;20.59;57.88;99929.62;1814697;78;21026;-59
2021/09/26 07:48:30;;;;;;;3.35;2.90;;;;;;;20.60;57.76;99928.56;1826398;78;20994;-58
2021/09/26 07:50:56;;;;;;;2.90;2.45;;;;;;;20.62;57.63;99943.18;1833760;77;21489;-58
2021/09/26 07:53:23;;;;;;;3.30;2.98;;;;;;;20.63;57.51;99946.19;1831207;77;21134;-59
2021/09/26 07:55:51;;;;;;;4.92;2.75;;;;;;;20.64;57.37;99945.13;1825681;78;21053;-58
2021/09/26 07:58:18;;;;;;;3.40;2.80;;;;;;;20.65;57.29;99945.94;1804095;77;21107;-58
2021/09/26 08:00:44;;;;;;;3.22;2.58;;;;;;;20.66;57.14;99947.59;1823679;76;21434;-59
2021/09/26 08:03:11;;;;;;;2.92;2.30;;;;;;;20.67;57.02;99947.87;1825784;78;21037;-58
2021/09/26 08:05:37;;;;;;;4.10;3.20;;;;;;;20.69;56.89;99944.45;1825861;78;21090;-58
2021/09/26 08:08:04;;;;;;;4.87;2.95;;;;;;;20.69;56.79;99946.62;1813467;78;21088;-59
2021/09/26 08:10:31;;;;;;;2.70;2.27;;;;;;;20.71;56.63;99948.55;1827838;77;21108;-57
2021/09/26 08:12:58;;;;;;;3.45;3.15;;;;;;;20.74;56.53;99944.56;1824862;76;21018;-58
2021/09/26 08:15:24;;;;;;;3.65;2.22;;;;;;;20.76;56.39;99950.02;1827043;77;21068;-60
2021/09/26 08:17:50;;;;;;;3.00;2.70;;;;;;;20.78;56.31;99956.55;1836939;77;21230;-60
2021/09/26 08:20:18;;;;;;;2.87;2.58;;;;;;;20.80;56.17;99957.14;1828488;77;21088;-59
2021/09/26 08:22:46;;;;;;;3.22;2.72;;;;;;;20.83;56.15;99963.98;1823934;78;20993;-58
2021/09/26 08:25:14;;;;;;;2.40;2.15;;;;;;;20.85;56.04;99959.98;1830697;77;21541;-59
2021/09/26 08:27:41;;;;;;;3.22;2.92;;;;;;;20.86;55.94;99962.99;1835506;76;21084;-59
2021/09/26 08:30:09;;;;;;;3.72;2.45;;;;;;;20.89;55.85;99956.30;1813628;77;21099;-59
2021/09/26 08:32:37;;;;;;;2.70;2.37;;;;;;;20.91;55.78;99955.00;1813840;78;20966;-60
2021/09/26 08:35:05;;;;;;;2.85;2.58;;;;;;;20.93;55.73;99950.19;1821584;78;21025;-59
2021/09/26 08:37:33;;;;;;;3.00;2.70;;;;;;;20.96;55.64;99955.14;1805218;78;21053;-59
2021/09/26 08:39:59;;;;;;;2.58;2.33;;;;;;;20.99;55.57;99951.15;1819676;78;21033;-59
2021/09/26 08:42:27;;;;;;;2.55;2.35;;;;;;;21.01;55.51;99948.53;1818550;78;21573;-58
2021/09/26 08:44:54;;;;;;;3.15;2.85;;;;;;;21.05;55.49;99952.10;1809274;78;21080;-60
2021/09/26 08:47:20;;;;;;;2.62;2.42;;;;;;;21.07;55.45;99956.20;1804233;79;21081;-59
2021/09/26 08:49:47;;;;;;;3.15;2.75;;;;;;;21.11;55.36;99956.57;1730291;81;21133;-58
2021/09/26 08:52:14;;;;;;;3.42;2.70;;;;;;;21.13;55.29;99956.66;1799345;78;21005;-59
2021/09/26 08:54:40;;;;;;;3.95;2.60;;;;;;;21.17;55.21;99959.69;1807515;78;21470;-60
2021/09/26 08:57:06;;;;;;;2.50;2.30;;;;;;;21.20;55.31;99958.70;1796222;77;21002;-59
2021/09/26 09:00:22;;;;;;;2.67;2.45;;;;;;;21.28;55.30;99949.42;1845558;76;22319;-60
2021/09/26 09:02:49;;;;;;;2.80;2.60;;;;;;;21.28;55.12;99960.23;1797732;77;21017;-60
2021/09/26 09:05:33;;;;;;;2.83;2.58;;;;;;;21.32;55.06;99961.95;1802915;77;21255;-59
2021/09/26 09:08:11;;;;;;;2.75;2.52;;;;;;;21.36;55.12;99957.72;1824915;78;21017;-60
2021/09/26 09:10:55;;;;;;;2.75;2.52;;;;;;;21.41;55.15;99963.25;1827912;77;21057;-59
2021/09/26 09:13:32;;;;;;;2.87;2.58;;;;;;;21.46;55.08;99962.57;1814181;77;21002;-59
2021/09/26 09:16:08;;;;;;;3.02;2.70;;;;;;;21.51;55.01;99953.24;1802720;77;21033;-59
2021/09/26 09:18:50;;;;;;;2.62;2.42;;;;;;;21.57;54.98;99949.59;1820051;77;21098;-60
2021/09/26 09:21:31;;;;;;;2.67;2.47;;;;;;;21.64;54.93;99956.25;1810424;77;20996;-60
2021/09/26 09:24:25;;;;;;;2.40;2.15;;;;;;;21.71;54.89;99956.92;1813384;77;21620;-60
2021/09/26 09:26:49;;;;;;;2.55;2.20;;;;;;;21.78;54.81;99950.34;1802693;78;21566;-60
2021/09/26 09:29:17;;;;;;;2.67;2.45;;;;;;;21.86;54.74;99954.56;1790755;77;21085;-58
2021/09/26 09:31:53;;;;;;;3.08;2.60;;;;;;;21.91;54.65;99956.03;1819656;77;21788;-59
2021/09/26 09:34:37;;;;;;;2.50;2.30;;;;;;;21.96;54.48;99954.80;1821486;77;21056;-62
2021/09/26 09:37:22;;;;;;;6.08;2.83;;;;;;;22.02;54.34;99956.25;1826988;77;21044;-63
2021/09/26 09:40:11;;;;;;;6.78;3.15;;;;;;;22.07;53.97;99956.36;1813653;77;21002;-64
2021/09/26 09:42:47;;;;;;;5.37;3.00;;;;;;;22.10;52.76;99953.19;1825290;77;21092;-64
2021/09/26 09:45:32;;;;;;;7.42;3.72;;;;;;;22.14;52.35;99953.81;1810733;77;21131;-64
2021/09/26 09:48:10;;;;;;;8.25;3.40;;;;;;;22.17;51.87;99952.00;1815220;77;20986;-63
2021/09/26 09:50:56;;;;;;;7.55;3.33;;;;;;;22.23;51.21;99958.84;1815368;77;21013;-63
2021/09/26 09:53:34;;;;;;;8.53;4.15;;;;;;;22.27;50.54;99960.03;1833566;77;21483;-65
2021/09/26 09:56:11;;;;;;;5.90;3.83;;;;;;;22.30;50.51;99971.20;1804492;77;21029;-65
2021/09/26 09:58:44;;;;;;;9.30;3.90;;;;;;;22.36;49.03;99966.72;1814693;77;21173;-60
2021/09/26 10:01:14;;;;;;;8.90;3.20;;;;;;;22.39;47.36;99973.02;1816654;77;21034;-64
2021/09/26 10:03:55;;;;;;;6.42;3.52;;;;;;;22.42;46.33;99972.52;1804977;77;21584;-61
2021/09/26 10:06:38;;;;;;;7.72;3.70;;;;;;;22.46;45.91;99968.81;1737549;82;21076;-66
2021/09/26 10:09:17;;;;;;;7.75;3.70;;;;;;;22.51;46.67;99966.20;1822289;77;21049;-64
2021/09/26 10:11:51;;;;;;;10.18;3.67;;;;;;;22.57;48.03;99973.36;1795765;77;21573;-64
2021/09/26 10:14:18;;;;;;;6.62;3.27;;;;;;;22.62;49.17;99976.17;1807287;77;21068;-64
2021/09/26 10:16:44;;;;;;;6.08;3.55;;;;;;;22.68;49.32;99986.57;1823493;77;21088;-62
2021/09/26 10:19:11;;;;;;;7.90;3.85;;;;;;;22.73;48.35;99979.88;1811902;76;21014;-66
2021/09/26 10:21:39;;;;;;;8.80;3.65;;;;;;;22.79;48.37;99969.42;1807163;77;21037;-62
2021/09/26 10:24:05;;;;;;;6.87;3.42;;;;;;;22.87;48.40;99983.95;1805720;77;21152;-63
2021/09/26 10:26:32;;;;;;;8.65;3.33;;;;;;;22.93;47.95;99983.52;1792859;79;21026;-63
2021/09/26 10:28:58;;;;;;;6.72;3.72;;;;;;;22.99;47.99;99984.42;1793350;79;21045;-64
2021/09/26 10:31:27;;;;;;;7.25;3.27;;;;;;;23.04;47.56;99979.11;1793609;77;21068;-65
2021/09/26 10:34:00;;;;;;;7.30;3.60;;;;;;;23.11;47.52;99973.81;1791851;78;21081;-63
2021/09/26 10:36:26;;;;;;;7.42;3.98;;;;;;;23.18;47.80;99975.03;1791980;77;21112;-64
2021/09/26 10:38:53;;;;;;;5.00;3.02;;;;;;;23.26;47.70;99976.52;1809599;79;21065;-63
2021/09/26 10:41:20;;;;;;;7.37;3.10;;;;;;;23.35;47.63;99973.14;1792010;77;21021;-64
2021/09/26 10:43:47;;;;;;;6.53;3.30;;;;;;;23.45;47.17;99962.15;1801323;78;21597;-63
2021/09/26 10:46:23;;;;;;;8.68;3.60;;;;;;;23.54;47.45;99962.02;1807208;77;21065;-63
2021/09/26 10:49:09;;;;;;;5.92;3.42;;;;;;;23.64;47.28;99958.13;1831901;77;21138;-62
2021/09/26 10:51:52;;;;;;;7.05;4.00;;;;;;;23.75;46.81;99962.59;1810308;77;21029;-63
2021/09/26 10:54:35;;;;;;;;;;;;;;;23.87;46.27;99958.98;1797449;77;21473;-62
2021/09/26 10:57:13;;;;;;;6.35;3.72;;;;;;;23.98;45.97;99963.48;1802471;78;20204;-64
2021/09/26 10:59:56;;;;;;;7.65;3.37;;;;;;;24.05;45.83;99960.58;1798952;78;21088;-62
2021/09/26 11:02:28;;;;;;;6.62;3.87;;;;;;;24.14;45.52;99967.21;1784959;77;21124;-61
2021/09/26 11:04:56;;;;;;;5.72;3.30;;;;;;;24.27;44.90;99966.02;1802506;77;21586;-63
2021/09/26 11:07:31;;;;;;;7.90;3.87;;;;;;;24.37;44.50;99960.70;1791497;77;20985;-63
2021/09/26 11:10:03;;;;;;;7.58;3.12;;;;;;;24.47;44.72;99960.84;1779013;77;21048;-65
2021/09/26 11:12:49;;;;;;;6.35;3.35;;;;;;;24.59;44.37;99962.59;1792154;77;21030;-64
2021/09/26 11:15:18;;;;;;;5.33;3.47;;;;;;;24.70;44.36;99954.29;1808897;77;23277;-69
2021/09/26 11:17:52;;;;;;;8.13;3.02;;;;;;;24.82;43.99;99951.96;1812904;77;21514;-58
2021/09/26 11:20:33;;;;;;;5.20;2.52;;;;;;;24.95;43.58;99951.54;1744325;81;22727;-59
2021/09/26 11:23:20;;;;;;;5.20;2.90;;;;;;;25.08;43.47;99955.74;1746487;80;21052;-59
2021/09/26 11:26:04;;;;;;;10.20;3.02;;;;;;;25.18;43.52;99956.36;1746115;80;21053;-63
2021/09/26 11:28:37;;;;;;;5.33;3.05;;;;;;;25.25;42.55;99956.45;1750974;81;21129;-60
2021/09/26 11:31:10;;;;;;;;;;;;;;;25.34;42.53;99955.97;1752758;79;21038;-60
2021/09/26 11:33:57;;;;;;;9.83;3.00;;;;;;;25.45;42.72;99948.16;1749380;79;20173;-58
2021/09/26 11:36:27;;;;;;;7.40;2.85;;;;;;;25.52;42.87;99948.77;1738958;81;21038;-58
2021/09/26 11:38:55;;;;;;;5.70;3.47;;;;;;;25.62;42.77;99951.54;1766976;79;21100;-59
2021/09/26 11:41:34;;;;;;;7.78;3.30;;;;;;;25.73;42.65;99957.88;1734711;79;21167;-59
2021/09/26 11:44:03;;;;;;;8.65;3.08;;;;;;;25.82;42.37;99954.09;1749126;79;21151;-59
2021/09/26 11:46:29;;;;;;;6.53;3.02;;;;;;;25.92;40.76;99952.81;1760849;79;21013;-58